SWA3677 KDAL-KDEN
Flight info
| Callsign | SWA3677 |
|---|---|
| Flight time | 1h 28m |
| Altitude | 34000 |
| Route | KKITY5 HUDAD NOSEW KA39Y ZIGEE NIIXX4 |
| Aircraft | B738/M-SDE2E3FGHIRWXY/LB1 |
Departure
| Time | 2026-05-03 21:07 |
|---|---|
| Airport | Dallas Love Field (KDAL) |
Arrival
| Time | 2026-05-03 22:36 |
|---|---|
| Airport | Denver International Airport (KDEN) |
| Time | Latitude | Longitude | Altitude | Speed | Heading |
|---|---|---|---|---|---|
| 2026-05-03 20:23 | 32.84646 | -96.84941 | 490 ft | 0 kts | 181° |
| 2026-05-03 20:56 | 32.84650 | -96.84941 | 490 ft | 4 kts | 181° |
| 2026-05-03 20:57 | 32.84677 | -96.84940 | 488 ft | 4 kts | 184° |
| 2026-05-03 20:57 | 32.84704 | -96.84936 | 491 ft | 4 kts | 192° |
| 2026-05-03 20:57 | 32.84729 | -96.84926 | 491 ft | 4 kts | 214° |
| 2026-05-03 20:57 | 32.84742 | -96.84906 | 491 ft | 2 kts | 272° |
| 2026-05-03 20:58 | 32.84742 | -96.84904 | 491 ft | 1 kts | 274° |
| 2026-05-03 21:02 | 32.84744 | -96.84931 | 486 ft | 10 kts | 271° |
| 2026-05-03 21:02 | 32.84744 | -96.85019 | 486 ft | 11 kts | 269° |
| 2026-05-03 21:02 | 32.84745 | -96.85119 | 484 ft | 13 kts | 271° |
| 2026-05-03 21:03 | 32.84746 | -96.85219 | 488 ft | 11 kts | 270° |
| 2026-05-03 21:03 | 32.84765 | -96.85307 | 487 ft | 11 kts | 305° |
| 2026-05-03 21:03 | 32.84787 | -96.85394 | 485 ft | 11 kts | 267° |
| 2026-05-03 21:03 | 32.84785 | -96.85487 | 480 ft | 11 kts | 265° |
| 2026-05-03 21:04 | 32.84775 | -96.85576 | 480 ft | 11 kts | 259° |
| 2026-05-03 21:04 | 32.84781 | -96.85673 | 485 ft | 16 kts | 299° |
| 2026-05-03 21:04 | 32.84876 | -96.85794 | 482 ft | 22 kts | 316° |
| 2026-05-03 21:04 | 32.84985 | -96.85923 | 478 ft | 22 kts | 315° |
| 2026-05-03 21:05 | 32.85095 | -96.86048 | 473 ft | 21 kts | 316° |
| 2026-05-03 21:05 | 32.85149 | -96.86142 | 480 ft | 13 kts | 280° |
| 2026-05-03 21:05 | 32.85152 | -96.86163 | 480 ft | 0 kts | 280° |
| 2026-05-03 21:05 | 32.85154 | -96.86173 | 480 ft | 5 kts | 288° |
| 2026-05-03 21:06 | 32.85175 | -96.86216 | 474 ft | 9 kts | 299° |
| 2026-05-03 21:06 | 32.85150 | -96.86300 | 474 ft | 13 kts | 219° |
| 2026-05-03 21:06 | 32.85095 | -96.86298 | 480 ft | 0 kts | 136° |
| 2026-05-03 21:06 | 32.85026 | -96.86216 | 479 ft | 52 kts | 134° |
| 2026-05-03 21:07 | 32.84532 | -96.85646 | 482 ft | 143 kts | 136° |
| 2026-05-03 21:07 | 32.83681 | -96.84674 | 1002 ft | 180 kts | 136° |
| 2026-05-03 21:07 | 32.82770 | -96.83623 | 2205 ft | 183 kts | 134° |
| 2026-05-03 21:07 | 32.81866 | -96.82509 | 3227 ft | 198 kts | 133° |
| 2026-05-03 21:08 | 32.80885 | -96.81277 | 3961 ft | 206 kts | 133° |
| 2026-05-03 21:08 | 32.79893 | -96.80026 | 4559 ft | 214 kts | 133° |
| 2026-05-03 21:08 | 32.78849 | -96.78726 | 5017 ft | 226 kts | 133° |
| 2026-05-03 21:08 | 32.77688 | -96.77271 | 5131 ft | 255 kts | 133° |
| 2026-05-03 21:09 | 32.76395 | -96.75655 | 5303 ft | 283 kts | 133° |
| 2026-05-03 21:09 | 32.75024 | -96.73980 | 6240 ft | 281 kts | 136° |
| 2026-05-03 21:09 | 32.73622 | -96.72373 | 7170 ft | 280 kts | 136° |
| 2026-05-03 21:09 | 32.72082 | -96.70991 | 7938 ft | 284 kts | 156° |
| 2026-05-03 21:10 | 32.70142 | -96.70552 | 8705 ft | 288 kts | 184° |
| 2026-05-03 21:10 | 32.68206 | -96.71154 | 9499 ft | 290 kts | 204° |
| 2026-05-03 21:10 | 32.66363 | -96.72171 | 10242 ft | 295 kts | 205° |
| 2026-05-03 21:10 | 32.64451 | -96.73264 | 10536 ft | 317 kts | 207° |
| 2026-05-03 21:11 | 32.62645 | -96.74902 | 10693 ft | 340 kts | 230° |
| 2026-05-03 21:11 | 32.61528 | -96.77451 | 10857 ft | 360 kts | 257° |
| 2026-05-03 21:11 | 32.61325 | -96.80473 | 11041 ft | 377 kts | 270° |
| 2026-05-03 21:11 | 32.61357 | -96.83629 | 11404 ft | 387 kts | 271° |
| 2026-05-03 21:12 | 32.61423 | -96.86833 | 11970 ft | 390 kts | 271° |
| 2026-05-03 21:12 | 32.61484 | -96.90056 | 12588 ft | 392 kts | 271° |
| 2026-05-03 21:12 | 32.61529 | -96.93264 | 13166 ft | 396 kts | 271° |
| 2026-05-03 21:12 | 32.61559 | -96.96578 | 13743 ft | 399 kts | 270° |
| 2026-05-03 21:13 | 32.61578 | -96.99879 | 14321 ft | 402 kts | 270° |
| 2026-05-03 21:13 | 32.61591 | -97.03218 | 14900 ft | 405 kts | 270° |
| 2026-05-03 21:13 | 32.61600 | -97.06574 | 15465 ft | 409 kts | 270° |
| 2026-05-03 21:13 | 32.61608 | -97.09963 | 16021 ft | 412 kts | 270° |
| 2026-05-03 21:14 | 32.61614 | -97.13331 | 16550 ft | 415 kts | 270° |
| 2026-05-03 21:14 | 32.61621 | -97.16768 | 17066 ft | 419 kts | 270° |
| 2026-05-03 21:14 | 32.61627 | -97.20238 | 17568 ft | 422 kts | 270° |
| 2026-05-03 21:14 | 32.61632 | -97.23734 | 18057 ft | 425 kts | 270° |
| 2026-05-03 21:15 | 32.61636 | -97.27260 | 18534 ft | 428 kts | 270° |
| 2026-05-03 21:15 | 32.61653 | -97.30804 | 18995 ft | 431 kts | 272° |
| 2026-05-03 21:15 | 32.62222 | -97.34295 | 19385 ft | 435 kts | 291° |
| 2026-05-03 21:15 | 32.63608 | -97.37484 | 19858 ft | 436 kts | 300° |
| 2026-05-03 21:16 | 32.65152 | -97.40600 | 20280 ft | 439 kts | 301° |
| 2026-05-03 21:16 | 32.66718 | -97.43725 | 20666 ft | 442 kts | 301° |
| 2026-05-03 21:16 | 32.68297 | -97.46885 | 21057 ft | 445 kts | 300° |
| 2026-05-03 21:16 | 32.69871 | -97.50059 | 21432 ft | 448 kts | 300° |
| 2026-05-03 21:17 | 32.71445 | -97.53262 | 21800 ft | 450 kts | 300° |
| 2026-05-03 21:17 | 32.72491 | -97.55400 | 22036 ft | 452 kts | 300° |
| 2026-05-03 21:17 | 32.74585 | -97.59702 | 22484 ft | 455 kts | 300° |
| 2026-05-03 21:17 | 32.76188 | -97.63007 | 22809 ft | 457 kts | 300° |
| 2026-05-03 21:18 | 32.77777 | -97.66287 | 23129 ft | 460 kts | 300° |
| 2026-05-03 21:18 | 32.79358 | -97.69556 | 23436 ft | 462 kts | 300° |
| 2026-05-03 21:18 | 32.80963 | -97.72875 | 23743 ft | 464 kts | 300° |
| 2026-05-03 21:18 | 32.82577 | -97.76217 | 24020 ft | 466 kts | 300° |
| 2026-05-03 21:19 | 32.84194 | -97.79566 | 24277 ft | 468 kts | 300° |
| 2026-05-03 21:19 | 32.85819 | -97.82935 | 24551 ft | 470 kts | 300° |
| 2026-05-03 21:19 | 32.87445 | -97.86310 | 24813 ft | 472 kts | 300° |
| 2026-05-03 21:19 | 32.89082 | -97.89709 | 25058 ft | 474 kts | 300° |
| 2026-05-03 21:20 | 32.90723 | -97.93121 | 25301 ft | 475 kts | 300° |
| 2026-05-03 21:20 | 32.92369 | -97.96546 | 25536 ft | 477 kts | 300° |
| 2026-05-03 21:20 | 32.94018 | -97.99981 | 25765 ft | 479 kts | 300° |
| 2026-05-03 21:20 | 32.95655 | -98.03392 | 25986 ft | 480 kts | 300° |
| 2026-05-03 21:21 | 32.97311 | -98.06850 | 26193 ft | 482 kts | 300° |
| 2026-05-03 21:21 | 32.98976 | -98.10326 | 26392 ft | 484 kts | 300° |
| 2026-05-03 21:21 | 33.00641 | -98.13807 | 26609 ft | 485 kts | 300° |
| 2026-05-03 21:21 | 33.02314 | -98.17308 | 26812 ft | 486 kts | 300° |
| 2026-05-03 21:22 | 33.03993 | -98.20825 | 26987 ft | 488 kts | 300° |
| 2026-05-03 21:22 | 33.05672 | -98.24347 | 27170 ft | 489 kts | 300° |
| 2026-05-03 21:22 | 33.07355 | -98.27879 | 27349 ft | 490 kts | 300° |
| 2026-05-03 21:22 | 33.09041 | -98.31420 | 27540 ft | 491 kts | 300° |
| 2026-05-03 21:23 | 33.10725 | -98.34961 | 27767 ft | 491 kts | 299° |
| 2026-05-03 21:23 | 33.12412 | -98.38514 | 28032 ft | 490 kts | 299° |
| 2026-05-03 21:23 | 33.14087 | -98.42043 | 28312 ft | 489 kts | 299° |
| 2026-05-03 21:23 | 33.15764 | -98.45580 | 28588 ft | 488 kts | 299° |
| 2026-05-03 21:24 | 33.17435 | -98.49108 | 28837 ft | 488 kts | 299° |
| 2026-05-03 21:24 | 33.19104 | -98.52635 | 29092 ft | 488 kts | 299° |
| 2026-05-03 21:24 | 33.20750 | -98.56115 | 29359 ft | 487 kts | 299° |
| 2026-05-03 21:24 | 33.22411 | -98.59634 | 29636 ft | 486 kts | 299° |
| 2026-05-03 21:25 | 33.24070 | -98.63149 | 29917 ft | 486 kts | 299° |
| 2026-05-03 21:25 | 33.25727 | -98.66665 | 30198 ft | 485 kts | 299° |
| 2026-05-03 21:25 | 33.27383 | -98.70182 | 30479 ft | 484 kts | 299° |
| 2026-05-03 21:25 | 33.29033 | -98.73688 | 30757 ft | 484 kts | 299° |
| 2026-05-03 21:26 | 33.30678 | -98.77188 | 31029 ft | 483 kts | 299° |
| 2026-05-03 21:26 | 33.32326 | -98.80698 | 31303 ft | 483 kts | 299° |
| 2026-05-03 21:26 | 33.33970 | -98.84203 | 31587 ft | 482 kts | 299° |
| 2026-05-03 21:26 | 33.35611 | -98.87706 | 31864 ft | 482 kts | 299° |
| 2026-05-03 21:27 | 33.37247 | -98.91199 | 32147 ft | 481 kts | 299° |
| 2026-05-03 21:27 | 33.38883 | -98.94698 | 32424 ft | 481 kts | 299° |
| 2026-05-03 21:27 | 33.40494 | -98.98147 | 32696 ft | 480 kts | 299° |
| 2026-05-03 21:27 | 33.42119 | -99.01626 | 32971 ft | 479 kts | 299° |
| 2026-05-03 21:28 | 33.43742 | -99.05107 | 33262 ft | 478 kts | 299° |
| 2026-05-03 21:28 | 33.45361 | -99.08583 | 33578 ft | 477 kts | 299° |
| 2026-05-03 21:28 | 33.46972 | -99.12044 | 33885 ft | 475 kts | 299° |
| 2026-05-03 21:28 | 33.48583 | -99.15508 | 34053 ft | 476 kts | 299° |
| 2026-05-03 21:29 | 33.51813 | -99.22467 | 34049 ft | 478 kts | 299° |
| 2026-05-03 21:29 | 33.55035 | -99.29412 | 34049 ft | 476 kts | 299° |
| 2026-05-03 21:30 | 33.58249 | -99.36347 | 34047 ft | 474 kts | 299° |
| 2026-05-03 21:30 | 33.61938 | -99.42854 | 34055 ft | 473 kts | 313° |
| 2026-05-03 21:31 | 33.66996 | -99.47877 | 34060 ft | 472 kts | 326° |
| 2026-05-03 21:31 | 33.72473 | -99.52164 | 34048 ft | 473 kts | 327° |
| 2026-05-03 21:32 | 33.77986 | -99.56471 | 34047 ft | 473 kts | 327° |
| 2026-05-03 21:32 | 33.83498 | -99.60850 | 34046 ft | 474 kts | 326° |
| 2026-05-03 21:33 | 33.89007 | -99.65271 | 34046 ft | 475 kts | 326° |
| 2026-05-03 21:33 | 33.94511 | -99.69703 | 34047 ft | 476 kts | 326° |
| 2026-05-03 21:34 | 34.00030 | -99.74152 | 34047 ft | 477 kts | 326° |
| 2026-05-03 21:34 | 34.05517 | -99.78579 | 34047 ft | 478 kts | 326° |
| 2026-05-03 21:35 | 34.11051 | -99.83052 | 34047 ft | 478 kts | 326° |
| 2026-05-03 21:35 | 34.16593 | -99.87538 | 34046 ft | 478 kts | 326° |
| 2026-05-03 21:36 | 34.22125 | -99.92023 | 34047 ft | 478 kts | 326° |
| 2026-05-03 21:36 | 34.27620 | -99.96485 | 34047 ft | 478 kts | 326° |
| 2026-05-03 21:37 | 34.33135 | -100.00971 | 34039 ft | 477 kts | 326° |
| 2026-05-03 21:37 | 34.38640 | -100.05455 | 34047 ft | 476 kts | 326° |
| 2026-05-03 21:38 | 34.44135 | -100.09939 | 34047 ft | 475 kts | 326° |
| 2026-05-03 21:38 | 34.49611 | -100.14415 | 34047 ft | 475 kts | 326° |
| 2026-05-03 21:39 | 34.55086 | -100.18897 | 34046 ft | 474 kts | 326° |
| 2026-05-03 21:39 | 34.60563 | -100.23388 | 34047 ft | 475 kts | 326° |
| 2026-05-03 21:40 | 34.66012 | -100.27863 | 34047 ft | 476 kts | 326° |
| 2026-05-03 21:40 | 34.71500 | -100.32377 | 34046 ft | 477 kts | 326° |
| 2026-05-03 21:41 | 34.76991 | -100.36902 | 34047 ft | 477 kts | 326° |
| 2026-05-03 21:41 | 34.82493 | -100.41443 | 34045 ft | 477 kts | 326° |
| 2026-05-03 21:42 | 34.87992 | -100.45988 | 34047 ft | 477 kts | 326° |
| 2026-05-03 21:42 | 34.93490 | -100.50541 | 34046 ft | 478 kts | 326° |
| 2026-05-03 21:43 | 34.98988 | -100.55101 | 34049 ft | 477 kts | 326° |
| 2026-05-03 21:43 | 35.04441 | -100.59631 | 34047 ft | 477 kts | 326° |
| 2026-05-03 21:44 | 35.09930 | -100.64200 | 34047 ft | 477 kts | 326° |
| 2026-05-03 21:44 | 35.15424 | -100.68780 | 34046 ft | 477 kts | 326° |
| 2026-05-03 21:45 | 35.20902 | -100.73354 | 34046 ft | 477 kts | 326° |
| 2026-05-03 21:45 | 35.26351 | -100.77912 | 34048 ft | 477 kts | 326° |
| 2026-05-03 21:46 | 35.31829 | -100.82502 | 34047 ft | 477 kts | 326° |
| 2026-05-03 21:46 | 35.37303 | -100.87097 | 34046 ft | 477 kts | 326° |
| 2026-05-03 21:47 | 35.41893 | -100.90957 | 34047 ft | 477 kts | 326° |
| 2026-05-03 21:47 | 35.47327 | -100.95535 | 34044 ft | 477 kts | 326° |
| 2026-05-03 21:48 | 35.52770 | -101.00191 | 34039 ft | 477 kts | 323° |
| 2026-05-03 21:48 | 35.57942 | -101.05295 | 34054 ft | 476 kts | 320° |
| 2026-05-03 21:49 | 35.63093 | -101.10420 | 34045 ft | 477 kts | 324° |
| 2026-05-03 21:49 | 35.68537 | -101.15094 | 34045 ft | 477 kts | 326° |
| 2026-05-03 21:50 | 35.74044 | -101.19697 | 34047 ft | 478 kts | 326° |
| 2026-05-03 21:50 | 35.79473 | -101.24321 | 34025 ft | 478 kts | 325° |
| 2026-05-03 21:51 | 35.84937 | -101.29044 | 33965 ft | 480 kts | 325° |
| 2026-05-03 21:51 | 35.90408 | -101.33800 | 33954 ft | 480 kts | 325° |
| 2026-05-03 21:52 | 35.95865 | -101.38552 | 33948 ft | 480 kts | 325° |
| 2026-05-03 21:52 | 36.01328 | -101.43313 | 33952 ft | 480 kts | 325° |
| 2026-05-03 21:53 | 36.06739 | -101.48036 | 33946 ft | 480 kts | 325° |
| 2026-05-03 21:53 | 36.12187 | -101.52799 | 33952 ft | 479 kts | 325° |
| 2026-05-03 21:54 | 36.17630 | -101.57566 | 33960 ft | 479 kts | 325° |
| 2026-05-03 21:54 | 36.23072 | -101.62341 | 33957 ft | 479 kts | 325° |
| 2026-05-03 21:55 | 36.28515 | -101.67125 | 33953 ft | 479 kts | 324° |
| 2026-05-03 21:55 | 36.33941 | -101.71903 | 33962 ft | 479 kts | 324° |
| 2026-05-03 21:56 | 36.39373 | -101.76694 | 33961 ft | 479 kts | 324° |
| 2026-05-03 21:56 | 36.44805 | -101.81493 | 33955 ft | 479 kts | 324° |
| 2026-05-03 21:57 | 36.50235 | -101.86299 | 33953 ft | 479 kts | 324° |
| 2026-05-03 21:57 | 36.55630 | -101.91082 | 33953 ft | 479 kts | 324° |
| 2026-05-03 21:58 | 36.61065 | -101.95909 | 33951 ft | 480 kts | 324° |
| 2026-05-03 21:58 | 36.66504 | -102.00749 | 33950 ft | 480 kts | 324° |
| 2026-05-03 21:59 | 36.71943 | -102.05597 | 33954 ft | 481 kts | 324° |
| 2026-05-03 21:59 | 36.77386 | -102.10457 | 33953 ft | 481 kts | 324° |
| 2026-05-03 22:00 | 36.82838 | -102.15335 | 33951 ft | 482 kts | 324° |
| 2026-05-03 22:00 | 36.88294 | -102.20225 | 33956 ft | 482 kts | 324° |
| 2026-05-03 22:01 | 36.93713 | -102.25089 | 33958 ft | 482 kts | 324° |
| 2026-05-03 22:01 | 36.99167 | -102.29995 | 33949 ft | 482 kts | 324° |
| 2026-05-03 22:02 | 37.04620 | -102.34908 | 33952 ft | 482 kts | 324° |
| 2026-05-03 22:02 | 37.10065 | -102.39824 | 33949 ft | 482 kts | 324° |
| 2026-05-03 22:03 | 37.15496 | -102.44735 | 33954 ft | 481 kts | 324° |
| 2026-05-03 22:03 | 37.20926 | -102.49655 | 33949 ft | 480 kts | 324° |
| 2026-05-03 22:04 | 37.26335 | -102.54565 | 33949 ft | 480 kts | 324° |
| 2026-05-03 22:04 | 37.31743 | -102.59483 | 33953 ft | 479 kts | 324° |
| 2026-05-03 22:05 | 37.37142 | -102.64403 | 33952 ft | 479 kts | 324° |
| 2026-05-03 22:05 | 37.42542 | -102.69334 | 33952 ft | 479 kts | 324° |
| 2026-05-03 22:06 | 37.47915 | -102.74250 | 33956 ft | 480 kts | 324° |
| 2026-05-03 22:06 | 37.53487 | -102.78916 | 33948 ft | 482 kts | 334° |
| 2026-05-03 22:07 | 37.59647 | -102.82263 | 33945 ft | 481 kts | 338° |
| 2026-05-03 22:07 | 37.65842 | -102.85455 | 33877 ft | 481 kts | 338° |
| 2026-05-03 22:08 | 37.72019 | -102.88710 | 33871 ft | 481 kts | 337° |
| 2026-05-03 22:08 | 37.78147 | -102.92000 | 33862 ft | 482 kts | 337° |
| 2026-05-03 22:09 | 37.84315 | -102.95331 | 33860 ft | 481 kts | 337° |
| 2026-05-03 22:10 | 37.93543 | -103.00323 | 33862 ft | 480 kts | 337° |
| 2026-05-03 22:10 | 37.99692 | -103.03654 | 33862 ft | 480 kts | 337° |
| 2026-05-03 22:11 | 38.05849 | -103.06995 | 33861 ft | 481 kts | 337° |
| 2026-05-03 22:11 | 38.11952 | -103.10314 | 33861 ft | 480 kts | 337° |
| 2026-05-03 22:12 | 38.18092 | -103.13659 | 33860 ft | 480 kts | 337° |
| 2026-05-03 22:12 | 38.24234 | -103.17013 | 33863 ft | 481 kts | 337° |
| 2026-05-03 22:13 | 38.30408 | -103.20391 | 33739 ft | 483 kts | 337° |
| 2026-05-03 22:13 | 38.33496 | -103.22084 | 33473 ft | 480 kts | 337° |
| 2026-05-03 22:13 | 38.36559 | -103.23763 | 33230 ft | 479 kts | 337° |
| 2026-05-03 22:13 | 38.39626 | -103.25446 | 32983 ft | 481 kts | 337° |
| 2026-05-03 22:14 | 38.42698 | -103.27138 | 32746 ft | 481 kts | 336° |
| 2026-05-03 22:14 | 38.45778 | -103.28838 | 32502 ft | 481 kts | 336° |
| 2026-05-03 22:14 | 38.48848 | -103.30537 | 32255 ft | 482 kts | 336° |
| 2026-05-03 22:14 | 38.51925 | -103.32242 | 32012 ft | 483 kts | 336° |
| 2026-05-03 22:15 | 38.54971 | -103.33932 | 31768 ft | 483 kts | 336° |
| 2026-05-03 22:15 | 38.58057 | -103.35645 | 31522 ft | 483 kts | 336° |
| 2026-05-03 22:15 | 38.61153 | -103.37367 | 31274 ft | 484 kts | 336° |
| 2026-05-03 22:15 | 38.64239 | -103.39084 | 31029 ft | 484 kts | 336° |
| 2026-05-03 22:16 | 38.67329 | -103.40806 | 30777 ft | 483 kts | 336° |
| 2026-05-03 22:16 | 38.70405 | -103.42522 | 30412 ft | 483 kts | 336° |
| 2026-05-03 22:16 | 38.73496 | -103.44246 | 30043 ft | 484 kts | 336° |
| 2026-05-03 22:16 | 38.76585 | -103.45971 | 29672 ft | 484 kts | 336° |
| 2026-05-03 22:17 | 38.79596 | -103.47904 | 29285 ft | 484 kts | 329° |
| 2026-05-03 22:17 | 38.82360 | -103.50365 | 28919 ft | 484 kts | 321° |
| 2026-05-03 22:17 | 38.84807 | -103.53321 | 28542 ft | 483 kts | 313° |
| 2026-05-03 22:17 | 38.87049 | -103.56530 | 28181 ft | 483 kts | 311° |
| 2026-05-03 22:18 | 38.89272 | -103.59781 | 27806 ft | 483 kts | 311° |
| 2026-05-03 22:18 | 38.91469 | -103.62985 | 27438 ft | 484 kts | 311° |
| 2026-05-03 22:18 | 38.93711 | -103.66215 | 27066 ft | 486 kts | 312° |
| 2026-05-03 22:18 | 38.95979 | -103.69451 | 26679 ft | 487 kts | 312° |
| 2026-05-03 22:19 | 38.98231 | -103.72651 | 26302 ft | 476 kts | 312° |
| 2026-05-03 22:19 | 39.00433 | -103.75779 | 25925 ft | 464 kts | 312° |
| 2026-05-03 22:19 | 39.02572 | -103.78823 | 25536 ft | 453 kts | 312° |
| 2026-05-03 22:19 | 39.04654 | -103.81791 | 25156 ft | 442 kts | 312° |
| 2026-05-03 22:20 | 39.06695 | -103.84706 | 24688 ft | 435 kts | 312° |
| 2026-05-03 22:20 | 39.08711 | -103.87587 | 24160 ft | 430 kts | 312° |
| 2026-05-03 22:20 | 39.10699 | -103.90432 | 23637 ft | 425 kts | 312° |
| 2026-05-03 22:20 | 39.12668 | -103.93250 | 23113 ft | 420 kts | 312° |
| 2026-05-03 22:21 | 39.14608 | -103.96048 | 22589 ft | 416 kts | 311° |
| 2026-05-03 22:21 | 39.16521 | -103.98823 | 22069 ft | 412 kts | 311° |
| 2026-05-03 22:21 | 39.18387 | -104.01538 | 21549 ft | 408 kts | 311° |
| 2026-05-03 22:21 | 39.20283 | -104.04300 | 21022 ft | 404 kts | 311° |
| 2026-05-03 22:22 | 39.22109 | -104.06961 | 20499 ft | 397 kts | 311° |
| 2026-05-03 22:22 | 39.23943 | -104.09636 | 19957 ft | 388 kts | 311° |
| 2026-05-03 22:22 | 39.25689 | -104.12183 | 19434 ft | 380 kts | 311° |
| 2026-05-03 22:22 | 39.27421 | -104.14708 | 18907 ft | 372 kts | 311° |
| 2026-05-03 22:23 | 39.29124 | -104.17193 | 18378 ft | 366 kts | 311° |
| 2026-05-03 22:23 | 39.30877 | -104.19522 | 17842 ft | 359 kts | 321° |
| 2026-05-03 22:23 | 39.32883 | -104.21412 | 17327 ft | 354 kts | 326° |
| 2026-05-03 22:23 | 39.34920 | -104.23155 | 16802 ft | 348 kts | 327° |
| 2026-05-03 22:24 | 39.36939 | -104.24849 | 16275 ft | 344 kts | 331° |
| 2026-05-03 22:24 | 39.39109 | -104.26084 | 15749 ft | 339 kts | 342° |
| 2026-05-03 22:24 | 39.41404 | -104.26753 | 15228 ft | 335 kts | 351° |
| 2026-05-03 22:24 | 39.43701 | -104.27207 | 14703 ft | 331 kts | 352° |
| 2026-05-03 22:25 | 39.45971 | -104.27629 | 14178 ft | 328 kts | 352° |
| 2026-05-03 22:25 | 39.48217 | -104.28046 | 13653 ft | 325 kts | 352° |
| 2026-05-03 22:25 | 39.50415 | -104.28462 | 13134 ft | 322 kts | 352° |
| 2026-05-03 22:25 | 39.52621 | -104.28888 | 12610 ft | 319 kts | 352° |
| 2026-05-03 22:26 | 39.54104 | -104.29178 | 12253 ft | 317 kts | 352° |
| 2026-05-03 22:26 | 39.55310 | -104.29414 | 11966 ft | 316 kts | 352° |
| 2026-05-03 22:26 | 39.57328 | -104.29813 | 11480 ft | 314 kts | 351° |
| 2026-05-03 22:26 | 39.59483 | -104.30241 | 10954 ft | 312 kts | 351° |
| 2026-05-03 22:27 | 39.61626 | -104.30668 | 10432 ft | 310 kts | 351° |
| 2026-05-03 22:27 | 39.63753 | -104.31092 | 9903 ft | 308 kts | 351° |
| 2026-05-03 22:27 | 39.65864 | -104.31514 | 9383 ft | 306 kts | 351° |
| 2026-05-03 22:27 | 39.67956 | -104.31933 | 8972 ft | 300 kts | 351° |
| 2026-05-03 22:28 | 39.69955 | -104.32333 | 8612 ft | 290 kts | 351° |
| 2026-05-03 22:28 | 39.71904 | -104.32723 | 8211 ft | 277 kts | 351° |
| 2026-05-03 22:28 | 39.73773 | -104.33098 | 7823 ft | 267 kts | 351° |
| 2026-05-03 22:28 | 39.75585 | -104.33462 | 7441 ft | 258 kts | 351° |
| 2026-05-03 22:29 | 39.77340 | -104.33815 | 7068 ft | 251 kts | 351° |
| 2026-05-03 22:29 | 39.79008 | -104.34150 | 7001 ft | 234 kts | 351° |
| 2026-05-03 22:29 | 39.80561 | -104.34462 | 6980 ft | 218 kts | 352° |
| 2026-05-03 22:29 | 39.81998 | -104.34749 | 6976 ft | 199 kts | 352° |
| 2026-05-03 22:30 | 39.82871 | -104.34924 | 6987 ft | 191 kts | 352° |
| 2026-05-03 22:30 | 39.84191 | -104.35187 | 6952 ft | 190 kts | 352° |
| 2026-05-03 22:30 | 39.85445 | -104.35591 | 6939 ft | 182 kts | 331° |
| 2026-05-03 22:30 | 39.86701 | -104.36955 | 6957 ft | 176 kts | 308° |
| 2026-05-03 22:31 | 39.87194 | -104.38412 | 7015 ft | 186 kts | 277° |
| 2026-05-03 22:31 | 39.87354 | -104.40093 | 6985 ft | 184 kts | 279° |
| 2026-05-03 22:31 | 39.87467 | -104.41186 | 6989 ft | 177 kts | 277° |
| 2026-05-03 22:31 | 39.87556 | -104.42728 | 7013 ft | 167 kts | 274° |
| 2026-05-03 22:32 | 39.87590 | -104.44227 | 6979 ft | 166 kts | 272° |
| 2026-05-03 22:32 | 39.87606 | -104.45713 | 6987 ft | 165 kts | 271° |
| 2026-05-03 22:32 | 39.87615 | -104.47204 | 7013 ft | 164 kts | 271° |
| 2026-05-03 22:32 | 39.87627 | -104.48698 | 6995 ft | 166 kts | 271° |
| 2026-05-03 22:33 | 39.87639 | -104.50187 | 6994 ft | 164 kts | 271° |
| 2026-05-03 22:33 | 39.87650 | -104.51663 | 6981 ft | 162 kts | 271° |
| 2026-05-03 22:33 | 39.87678 | -104.53178 | 6772 ft | 168 kts | 272° |
| 2026-05-03 22:33 | 39.87667 | -104.54648 | 6473 ft | 158 kts | 270° |
| 2026-05-03 22:34 | 39.87664 | -104.56062 | 6259 ft | 157 kts | 271° |
| 2026-05-03 22:34 | 39.87670 | -104.56630 | 6176 ft | 158 kts | 271° |
| 2026-05-03 22:34 | 39.87687 | -104.58043 | 5963 ft | 157 kts | 272° |
| 2026-05-03 22:34 | 39.87703 | -104.59458 | 5735 ft | 156 kts | 271° |
| 2026-05-03 22:35 | 39.87713 | -104.60848 | 5539 ft | 151 kts | 272° |
| 2026-05-03 22:35 | 39.87725 | -104.62174 | 5323 ft | 139 kts | 272° |
| 2026-05-03 22:35 | 39.87737 | -104.63303 | 5324 ft | 105 kts | 270° |
| 2026-05-03 22:35 | 39.87741 | -104.64064 | 5331 ft | 63 kts | 270° |
| 2026-05-03 22:36 | 39.87707 | -104.64463 | 5338 ft | 35 kts | 250° |
| 2026-05-03 22:36 | 39.87616 | -104.64709 | 5342 ft | 28 kts | 244° |
| 2026-05-03 22:36 | 39.87582 | -104.64943 | 5346 ft | 26 kts | 269° |
| 2026-05-03 22:36 | 39.87582 | -104.65168 | 5347 ft | 24 kts | 270° |
| 2026-05-03 22:37 | 39.87583 | -104.65376 | 5350 ft | 22 kts | 271° |
| 2026-05-03 22:37 | 39.87585 | -104.65572 | 5353 ft | 21 kts | 269° |
| 2026-05-03 22:37 | 39.87587 | -104.65759 | 5355 ft | 21 kts | 271° |
| 2026-05-03 22:37 | 39.87588 | -104.65943 | 5358 ft | 20 kts | 270° |
| 2026-05-03 22:38 | 39.87588 | -104.66114 | 5360 ft | 19 kts | 270° |
| 2026-05-03 22:38 | 39.87522 | -104.66211 | 5359 ft | 17 kts | 196° |
| 2026-05-03 22:38 | 39.87446 | -104.66319 | 5358 ft | 17 kts | 200° |
| 2026-05-03 22:38 | 39.87335 | -104.66328 | 5361 ft | 16 kts | 180° |
| 2026-05-03 22:39 | 39.87227 | -104.66330 | 5364 ft | 15 kts | 180° |
| 2026-05-03 22:39 | 39.87122 | -104.66331 | 5363 ft | 15 kts | 181° |
| 2026-05-03 22:39 | 39.86977 | -104.66334 | 5367 ft | 24 kts | 180° |
| 2026-05-03 22:39 | 39.86814 | -104.66339 | 5372 ft | 23 kts | 179° |
| 2026-05-03 22:40 | 39.86658 | -104.66338 | 5374 ft | 22 kts | 181° |
| 2026-05-03 22:40 | 39.86535 | -104.66345 | 5377 ft | 12 kts | 196° |
| 2026-05-03 22:40 | 39.86501 | -104.66438 | 5374 ft | 12 kts | 262° |
| 2026-05-03 22:40 | 39.86465 | -104.66534 | 5375 ft | 12 kts | 239° |
| 2026-05-03 22:41 | 39.86422 | -104.66645 | 5373 ft | 15 kts | 248° |
| 2026-05-03 22:41 | 39.86421 | -104.66780 | 5376 ft | 15 kts | 296° |
| 2026-05-03 22:41 | 39.86469 | -104.66972 | 5374 ft | 27 kts | 273° |
| 2026-05-03 22:41 | 39.86474 | -104.67207 | 5376 ft | 25 kts | 271° |
| 2026-05-03 22:42 | 39.86471 | -104.67383 | 5373 ft | 9 kts | 270° |
| 2026-05-03 22:42 | 39.86474 | -104.67446 | 5376 ft | 4 kts | 274° |
| 2026-05-03 22:42 | 39.86475 | -104.67463 | 5376 ft | 2 kts | 274° |
| 2026-05-03 22:42 | 39.86475 | -104.67478 | 5376 ft | 2 kts | 274° |
| 2026-05-03 22:43 | 39.86477 | -104.67515 | 5376 ft | 8 kts | 272° |
| 2026-05-03 22:43 | 39.86476 | -104.67595 | 5376 ft | 11 kts | 270° |
| 2026-05-03 22:43 | 39.86475 | -104.67707 | 5376 ft | 11 kts | 269° |
| 2026-05-03 22:43 | 39.86449 | -104.67780 | 5376 ft | 9 kts | 202° |
| 2026-05-03 22:44 | 39.86393 | -104.67786 | 5376 ft | 7 kts | 180° |
| 2026-05-03 22:44 | 39.86369 | -104.67786 | 5372 ft | 3 kts | 180° |
| 2026-05-03 22:44 | 39.86357 | -104.67786 | 5376 ft | 0 kts | 180° |